Aérodrome :
LOGIN :

S'inscrire | Disclaimer

   EN    FR    IT 

 










Légende :    VFR   VFR Marginal   IFR   IFR Intensif   IFR Très Intensif
Visi : 
Plafond : 
>= 8 km
>= 3000ft
5 à 8 km
1000 à 3000 ft
1500m à 5 km
500 à 1000 ft
800 à 1500m
200 à 500 ft
< 800m
< 200 ft
Symboles :   Orages  Brouillard  Fortes neiges  Fortes précipitations  Vent > 20 kt
SIGMETs :   Divers  Orages  Givrage  Turbulence  Onde Orograph.  Cendres Volcan.







- Altitude de l'aérodrome : 896 ft


LOAN - Wiener Neustadt East

DERNIER METAR :
  • 181100Z 30014KT 25KM FEW025CU SCT040SC BKN070SC

METARs EXPIRÉS :
  • 181000Z 30016KT 10KM VCSH FEW018CU SCT035SC BKN070SC
  • 180900Z 31015KT 18KM FEW018CU SCT035SC BKN070SC

TAF TAF LOAN
Valide du 18 à 12h jusqu'au 18 à 21h UTC


181125Z 1812/1821 30012KT 9999 FEW030
TEMPO 1812/1813 31015G25KT -SHSN FEW020 BKN030 FEW030TCU
TEMPO 1813/1816 31015G25KT SCT030
BECMG 1818/1820 VRB02KT FEW300
Pas de NOTAMs connus pour ce terrain.



MET'MAP, la Météo Aéronautique d'un coup d'oeil ! - Copyright ORBIFLY Décembre 2007 - Disclaimer

ORBIFLY MET'MAP TEAM :

Programmation & Développement : Alexandra Zaïnal
Conception & Développement : Baudouin d'Aumeries
Co-Programmation & Développement : Marc-Olivier Méhu
Soutien technique & logistique : Manuel Goepfert

Contact : metmap@orbifly.com




SOURCES & CREDITS :

   NOAA